createdAt,value
2023-03-17T00:00:24.659Z,5.54
2023-03-17T00:02:52.461Z,5.51
2023-03-17T00:05:24.684Z,5.48
2023-03-17T00:07:54.324Z,5.47
2023-03-17T00:10:23.845Z,5.42
2023-03-17T00:12:53.292Z,5.43
2023-03-17T00:15:22.230Z,5.44
2023-03-17T00:17:51.597Z,5.44
2023-03-17T00:20:25.325Z,5.37
2023-03-17T00:22:55.258Z,5.34
2023-03-17T00:25:27.258Z,5.32
2023-03-17T00:27:56.851Z,5.31
2023-03-17T00:30:29.142Z,5.31
2023-03-17T00:32:59.630Z,5.31
2023-03-17T00:35:30.693Z,5.30
2023-03-17T00:37:59.985Z,5.29
2023-03-17T00:40:31.720Z,5.29
2023-03-17T00:43:00.904Z,5.28
2023-03-17T00:45:29.013Z,5.28
2023-03-17T00:47:58.965Z,5.29
2023-03-17T00:50:30.006Z,5.27
2023-03-17T00:52:59.140Z,5.28
2023-03-17T00:55:27.553Z,5.30
2023-03-17T00:57:55.479Z,5.27
2023-03-17T01:00:31.138Z,5.23
2023-03-17T01:02:58.910Z,5.20
2023-03-17T01:05:29.622Z,5.19
2023-03-17T01:07:58.791Z,5.17
2023-03-17T01:10:29.868Z,5.15
2023-03-17T01:13:00.058Z,5.14
2023-03-17T01:15:31.556Z,5.13
2023-03-17T01:18:02.586Z,5.11
2023-03-17T01:20:34.576Z,5.09
2023-03-17T01:23:02.616Z,5.06
2023-03-17T01:25:30.874Z,5.04
2023-03-17T01:28:00.131Z,5.04
2023-03-17T01:30:31.008Z,5.04
2023-03-17T01:32:59.891Z,5.05
2023-03-17T01:35:30.213Z,5.12
2023-03-17T01:38:00.706Z,5.15
2023-03-17T01:40:32.247Z,5.20
2023-03-17T01:43:04.352Z,5.27
2023-03-17T01:45:51.628Z,5.30
2023-03-17T01:48:20.768Z,5.35
2023-03-17T01:50:49.770Z,5.39
2023-03-17T01:53:21.358Z,5.43
2023-03-17T01:55:51.179Z,5.46
2023-03-17T01:58:21.323Z,5.50
2023-03-17T02:00:50.166Z,5.50
2023-03-17T02:03:19.734Z,5.49
2023-03-17T02:05:49.320Z,5.47
2023-03-17T02:08:19.608Z,5.44
2023-03-17T02:10:50.476Z,5.43
2023-03-17T02:13:18.175Z,5.40
2023-03-17T02:15:54.386Z,5.36
2023-03-17T02:18:24.585Z,5.32
2023-03-17T02:21:31.423Z,5.30
2023-03-17T02:24:01.795Z,5.28
2023-03-17T02:26:35.591Z,5.27
2023-03-17T02:29:05.899Z,5.23
2023-03-17T02:31:34.804Z,5.21
2023-03-17T02:34:03.599Z,5.20
2023-03-17T02:36:36.395Z,5.19
2023-03-17T02:39:04.744Z,5.14
2023-03-17T02:41:32.480Z,5.12
2023-03-17T02:44:00.572Z,5.11
2023-03-17T02:46:29.079Z,5.17
2023-03-17T02:49:00.707Z,5.21
2023-03-17T02:51:28.449Z,5.27
2023-03-17T02:53:57.670Z,5.33
2023-03-17T02:56:26.105Z,5.28
2023-03-17T02:58:53.685Z,5.28
2023-03-17T03:01:22.252Z,5.28
2023-03-17T03:04:14.334Z,5.28
2023-03-17T03:06:44.539Z,5.27
2023-03-17T03:09:14.726Z,5.26
2023-03-17T03:11:43.682Z,5.24
2023-03-17T03:14:13.588Z,5.23
2023-03-17T03:16:43.346Z,5.21
2023-03-17T03:19:11.078Z,5.21
2023-03-17T03:21:38.694Z,5.21
2023-03-17T03:24:07.453Z,5.19
2023-03-17T03:26:36.969Z,5.16
2023-03-17T03:29:05.256Z,5.13
2023-03-17T03:31:32.890Z,5.08
2023-03-17T03:34:01.080Z,5.05
2023-03-17T03:36:29.686Z,5.03
2023-03-17T03:38:58.601Z,5.01
2023-03-17T03:41:26.231Z,4.90
2023-03-17T03:43:55.605Z,4.83
2023-03-17T03:46:23.314Z,4.78
2023-03-17T03:48:50.949Z,4.72
2023-03-17T03:51:18.549Z,4.67
2023-03-17T03:53:48.140Z,4.63
2023-03-17T03:56:15.989Z,4.57
2023-03-17T03:58:43.746Z,4.51
2023-03-17T04:01:13.186Z,4.45
2023-03-17T04:03:41.241Z,4.40
2023-03-17T04:06:35.588Z,4.31
2023-03-17T04:09:05.595Z,4.24
2023-03-17T04:11:35.048Z,4.19
2023-03-17T04:14:03.180Z,4.13
2023-03-17T04:16:32.161Z,4.06
2023-03-17T04:18:59.960Z,4.00
2023-03-17T04:21:54.612Z,3.93
2023-03-17T04:24:22.666Z,3.87
2023-03-17T04:26:50.276Z,3.82
2023-03-17T04:29:18.991Z,3.77
2023-03-17T04:31:49.559Z,3.71
2023-03-17T04:34:19.725Z,3.64
2023-03-17T04:36:49.701Z,3.60
2023-03-17T04:39:18.329Z,3.54
2023-03-17T04:41:46.251Z,3.50
2023-03-17T04:44:14.147Z,3.45
2023-03-17T04:46:44.616Z,3.41
2023-03-17T04:49:13.669Z,3.37
2023-03-17T04:51:42.593Z,3.33
2023-03-17T04:54:10.190Z,3.32
2023-03-17T04:56:37.909Z,3.27
2023-03-17T04:59:05.699Z,3.26
2023-03-17T05:01:35.041Z,3.22
2023-03-17T05:04:02.664Z,3.19
2023-03-17T05:06:31.770Z,3.16
2023-03-17T05:08:59.697Z,3.15
2023-03-17T05:11:52.996Z,3.14
2023-03-17T05:14:20.555Z,3.13
2023-03-17T05:16:50.823Z,3.14
2023-03-17T05:19:19.097Z,3.13
2023-03-17T05:21:48.959Z,3.16
2023-03-17T05:24:17.795Z,3.17
2023-03-17T05:26:45.967Z,3.17
2023-03-17T05:29:13.548Z,3.19
2023-03-17T05:31:42.302Z,3.25
2023-03-17T05:34:10.148Z,3.31
2023-03-17T05:36:37.825Z,3.34
2023-03-17T05:39:11.573Z,3.34
2023-03-17T05:41:40.897Z,3.34
2023-03-17T05:44:10.302Z,3.34
2023-03-17T05:46:37.907Z,3.34
2023-03-17T05:49:06.049Z,3.33
2023-03-17T05:51:35.736Z,3.33
2023-03-17T05:54:05.610Z,3.31
2023-03-17T05:56:36.596Z,3.30
2023-03-17T05:59:04.529Z,3.27
2023-03-17T06:01:32.319Z,3.30
2023-03-17T06:04:02.610Z,3.25
2023-03-17T06:06:30.191Z,3.21
2023-03-17T06:08:58.683Z,3.17
2023-03-17T06:11:26.598Z,3.15
2023-03-17T06:13:56.989Z,3.13
2023-03-17T06:16:24.633Z,3.10
2023-03-17T06:18:53.676Z,3.10
2023-03-17T06:21:21.708Z,3.08
2023-03-17T06:23:50.871Z,3.12
2023-03-17T06:26:18.524Z,3.09
2023-03-17T06:28:46.493Z,3.08
2023-03-17T06:31:16.560Z,3.08
2023-03-17T06:33:44.146Z,3.06
2023-03-17T06:36:12.316Z,3.06
2023-03-17T06:38:40.505Z,3.05
2023-03-17T06:41:33.597Z,3.06
2023-03-17T06:44:02.808Z,3.07
2023-03-17T06:46:32.588Z,3.08
2023-03-17T06:49:01.606Z,3.11
2023-03-17T06:51:31.041Z,3.16
2023-03-17T06:53:59.192Z,3.20
2023-03-17T06:56:30.570Z,3.26
2023-03-17T06:59:00.592Z,3.31
2023-03-17T07:01:28.605Z,3.36
2023-03-17T07:03:57.576Z,3.43
2023-03-17T07:06:25.164Z,3.50
2023-03-17T07:08:52.780Z,3.58
2023-03-17T07:11:20.602Z,3.69
2023-03-17T07:13:49.060Z,3.82
2023-03-17T07:16:20.926Z,3.91
2023-03-17T07:18:52.719Z,4.04
2023-03-17T07:21:21.825Z,4.14
2023-03-17T07:23:49.446Z,4.27
2023-03-17T07:26:17.082Z,4.39
2023-03-17T07:28:45.161Z,4.53
2023-03-17T07:31:14.433Z,4.73
2023-03-17T07:33:42.698Z,5.02
2023-03-17T07:36:12.586Z,5.36
2023-03-17T07:38:41.638Z,5.75
2023-03-17T07:41:11.635Z,6.12
2023-03-17T07:43:39.293Z,6.49
2023-03-17T07:46:08.459Z,6.86
2023-03-17T07:48:41.991Z,7.22
2023-03-17T07:51:15.842Z,7.61
2023-03-17T07:53:46.325Z,7.93
2023-03-17T07:56:14.582Z,8.26
2023-03-17T07:58:42.166Z,8.57
2023-03-17T08:01:10.185Z,8.83
2023-03-17T08:03:41.148Z,9.11
2023-03-17T08:06:12.670Z,9.42
2023-03-17T08:08:50.608Z,9.83
2023-03-17T08:11:18.829Z,10.21
2023-03-17T08:13:46.611Z,10.14
2023-03-17T08:16:14.726Z,10.25
2023-03-17T08:18:44.586Z,10.35
2023-03-17T08:21:14.099Z,10.49
2023-03-17T08:23:44.678Z,10.84
2023-03-17T08:26:15.855Z,10.94
2023-03-17T08:28:44.748Z,11.06
2023-03-17T08:31:38.088Z,11.15
2023-03-17T08:34:06.670Z,11.29
2023-03-17T08:36:37.741Z,11.44
2023-03-17T08:39:06.263Z,11.55
2023-03-17T08:41:36.770Z,11.67
2023-03-17T08:44:04.740Z,11.92
2023-03-17T08:46:33.666Z,12.35
2023-03-17T08:49:03.195Z,12.34
2023-03-17T08:51:34.237Z,12.29
2023-03-17T08:54:06.731Z,12.57
2023-03-17T08:57:02.680Z,12.70
2023-03-17T08:59:30.319Z,13.06
2023-03-17T09:01:58.188Z,12.90
2023-03-17T09:04:26.525Z,12.98
2023-03-17T09:07:03.357Z,13.05
2023-03-17T09:09:32.757Z,13.24
2023-03-17T09:12:26.133Z,13.34
2023-03-17T09:14:54.561Z,13.34
2023-03-17T09:17:23.246Z,13.25
2023-03-17T09:19:51.122Z,13.59
2023-03-17T09:22:19.618Z,13.61
2023-03-17T09:24:48.511Z,13.46
2023-03-17T09:27:17.642Z,13.62
2023-03-17T09:29:45.438Z,13.82
2023-03-17T09:32:13.821Z,13.92
2023-03-17T09:34:42.157Z,13.94
2023-03-17T09:37:10.637Z,13.79
2023-03-17T09:39:38.322Z,13.82
2023-03-17T09:42:17.035Z,13.93
2023-03-17T09:45:03.329Z,14.09
2023-03-17T09:47:52.767Z,14.16
2023-03-17T09:50:26.058Z,14.21
2023-03-17T09:52:56.742Z,14.37
2023-03-17T09:55:53.669Z,14.35
2023-03-17T09:58:26.981Z,14.41
2023-03-17T10:00:57.614Z,14.50
2023-03-17T10:03:27.601Z,14.54
2023-03-17T10:06:02.082Z,14.74
2023-03-17T10:08:34.711Z,14.74
2023-03-17T10:11:10.850Z,14.84
2023-03-17T10:13:52.121Z,14.93
2023-03-17T10:16:24.273Z,14.93
2023-03-17T10:18:56.723Z,15.08
2023-03-17T10:21:29.430Z,15.02
2023-03-17T10:23:59.202Z,15.06
2023-03-17T10:26:33.352Z,15.14
2023-03-17T10:29:04.138Z,15.08
2023-03-17T10:31:35.430Z,15.30
2023-03-17T10:34:14.713Z,15.23
2023-03-17T10:36:45.481Z,15.21
2023-03-17T10:39:15.746Z,15.33
2023-03-17T10:41:57.616Z,15.39
2023-03-17T10:44:39.210Z,15.48
2023-03-17T10:47:22.602Z,15.55
2023-03-17T10:49:51.931Z,15.65
2023-03-17T10:52:22.588Z,15.67
2023-03-17T10:54:52.624Z,15.83
2023-03-17T10:57:21.348Z,15.86
2023-03-17T10:59:54.428Z,15.92
2023-03-17T11:02:27.464Z,15.99
2023-03-17T11:04:59.619Z,16.24
2023-03-17T11:07:35.601Z,16.13
2023-03-17T11:10:06.468Z,16.40
2023-03-17T11:12:39.246Z,16.21
2023-03-17T11:15:11.968Z,16.21
2023-03-17T11:17:47.602Z,16.23
2023-03-17T11:20:30.264Z,16.19
2023-03-17T11:23:05.493Z,16.38
2023-03-17T11:25:40.261Z,16.43
2023-03-17T11:28:19.723Z,16.15
2023-03-17T11:30:58.099Z,16.47
2023-03-17T11:33:41.632Z,16.28
2023-03-17T11:36:20.572Z,16.47
2023-03-17T11:38:59.978Z,16.49
2023-03-17T11:41:52.248Z,16.43
2023-03-17T11:44:52.625Z,16.55
2023-03-17T11:47:34.631Z,16.54
2023-03-17T11:50:17.578Z,16.60
2023-03-17T11:52:59.765Z,16.64
2023-03-17T11:55:38.702Z,16.69
2023-03-17T11:58:10.483Z,16.74
2023-03-17T12:00:42.138Z,16.78
2023-03-17T12:03:15.762Z,16.88
2023-03-17T12:05:47.685Z,16.85
2023-03-17T12:08:18.870Z,16.89
2023-03-17T12:10:52.630Z,16.87
2023-03-17T12:13:27.914Z,16.93
2023-03-17T12:16:05.368Z,17.05
2023-03-17T12:18:37.376Z,17.07
2023-03-17T12:21:14.529Z,16.99
2023-03-17T12:23:48.187Z,17.09
2023-03-17T12:26:23.678Z,17.13
2023-03-17T12:28:57.401Z,17.34
2023-03-17T12:31:32.261Z,17.12
2023-03-17T12:34:06.354Z,17.26
2023-03-17T12:36:36.686Z,17.30
2023-03-17T12:39:10.122Z,17.38
2023-03-17T12:42:08.763Z,17.27
2023-03-17T12:44:58.039Z,17.30
2023-03-17T12:47:48.084Z,17.40
2023-03-17T12:50:44.736Z,17.54
2023-03-17T12:53:26.534Z,17.40
2023-03-17T12:55:56.482Z,17.39
2023-03-17T12:58:32.258Z,17.27
2023-03-17T13:01:08.738Z,17.36
2023-03-17T13:03:46.671Z,17.35
2023-03-17T13:06:20.723Z,17.50
2023-03-17T13:08:52.620Z,17.34
2023-03-17T13:11:29.654Z,17.39
2023-03-17T13:14:17.622Z,17.57
2023-03-17T13:16:47.627Z,17.54
2023-03-17T13:19:19.961Z,17.47
2023-03-17T13:22:13.892Z,17.51
2023-03-17T13:24:48.101Z,17.57
2023-03-17T13:27:36.617Z,17.67
2023-03-17T13:30:38.674Z,17.58
2023-03-17T13:33:23.622Z,17.65
2023-03-17T13:36:10.651Z,17.51
2023-03-17T13:39:18.176Z,17.69
2023-03-17T13:42:01.153Z,17.59
2023-03-17T13:44:43.667Z,17.56
2023-03-17T13:47:32.554Z,17.60
2023-03-17T13:50:07.456Z,17.73
2023-03-17T13:52:41.677Z,17.74
2023-03-17T13:55:35.721Z,17.83
2023-03-17T13:58:33.114Z,17.83
2023-03-17T14:01:07.203Z,17.86
2023-03-17T14:03:49.694Z,17.83
2023-03-17T14:06:19.348Z,17.76
2023-03-17T14:08:49.482Z,17.80
2023-03-17T14:11:25.813Z,17.71
2023-03-17T14:14:09.302Z,17.69
2023-03-17T14:16:44.029Z,17.79
2023-03-17T14:19:17.484Z,17.84
2023-03-17T14:21:45.310Z,17.70
2023-03-17T14:24:21.537Z,17.63
2023-03-17T14:26:50.233Z,17.63
2023-03-17T14:29:22.784Z,17.60
2023-03-17T14:32:04.183Z,17.60
2023-03-17T14:34:32.238Z,17.58
2023-03-17T14:37:02.801Z,17.68
2023-03-17T14:39:30.789Z,17.59
2023-03-17T14:42:00.382Z,17.61
2023-03-17T14:44:38.466Z,17.58
2023-03-17T14:47:14.638Z,17.59
2023-03-17T14:49:43.402Z,17.49
2023-03-17T14:52:20.319Z,17.56
2023-03-17T14:54:52.775Z,17.50
2023-03-17T14:57:24.558Z,17.50
2023-03-17T15:00:00.237Z,17.41
2023-03-17T15:02:35.084Z,17.39
2023-03-17T15:05:14.629Z,17.32
2023-03-17T15:08:40.865Z,17.29
2023-03-17T15:11:18.406Z,17.32
2023-03-17T15:13:46.527Z,17.29
2023-03-17T15:16:21.653Z,17.25
2023-03-17T15:18:53.977Z,17.26
2023-03-17T15:21:30.654Z,17.19
2023-03-17T15:24:05.613Z,17.20
2023-03-17T15:26:38.323Z,17.22
2023-03-17T15:29:07.641Z,17.24
2023-03-17T15:31:36.606Z,17.26
2023-03-17T15:34:05.322Z,17.22
2023-03-17T15:36:35.630Z,17.16
2023-03-17T15:39:03.754Z,17.14
2023-03-17T15:41:32.720Z,17.14
2023-03-17T15:44:06.306Z,17.10
2023-03-17T15:46:34.286Z,17.13
2023-03-17T15:49:03.265Z,17.06
2023-03-17T15:51:31.107Z,17.07
2023-03-17T15:53:59.753Z,17.12
2023-03-17T15:56:29.762Z,17.00
2023-03-17T15:58:57.373Z,16.93
2023-03-17T16:01:27.786Z,16.86
2023-03-17T16:03:55.837Z,16.86
2023-03-17T16:06:25.450Z,16.83
2023-03-17T16:08:53.153Z,16.81
2023-03-17T16:11:27.873Z,16.74
2023-03-17T16:13:56.758Z,16.72
2023-03-17T16:16:31.536Z,16.67
2023-03-17T16:19:00.120Z,16.63
2023-03-17T16:21:30.999Z,16.53
2023-03-17T16:23:59.411Z,16.52
2023-03-17T16:26:27.534Z,16.51
2023-03-17T16:28:55.641Z,16.44
2023-03-17T16:31:29.202Z,16.44
2023-03-17T16:33:57.095Z,16.35
2023-03-17T16:36:25.811Z,16.27
2023-03-17T16:38:54.815Z,16.21
2023-03-17T16:41:25.402Z,16.17
2023-03-17T16:43:58.736Z,16.08
2023-03-17T16:46:28.799Z,16.06
2023-03-17T16:48:56.485Z,16.02
2023-03-17T16:51:24.747Z,15.98
2023-03-17T16:53:55.649Z,15.92
2023-03-17T16:56:28.429Z,15.87
2023-03-17T16:58:56.194Z,15.81
2023-03-17T17:01:27.830Z,15.83
2023-03-17T17:03:56.514Z,15.72
2023-03-17T17:06:24.868Z,15.69
2023-03-17T17:08:52.948Z,15.65
2023-03-17T17:11:21.944Z,15.59
2023-03-17T17:13:51.526Z,15.54
2023-03-17T17:16:24.393Z,15.48
2023-03-17T17:18:52.254Z,15.42
2023-03-17T17:21:19.861Z,15.35
2023-03-17T17:23:47.654Z,15.33
2023-03-17T17:26:15.340Z,15.28
2023-03-17T17:28:44.308Z,15.21
2023-03-17T17:31:12.283Z,15.16
2023-03-17T17:33:40.205Z,15.15
2023-03-17T17:36:14.395Z,15.09
2023-03-17T17:38:42.244Z,15.03
2023-03-17T17:41:11.664Z,14.98
2023-03-17T17:43:39.410Z,14.94
2023-03-17T17:46:13.231Z,14.90
2023-03-17T17:48:41.036Z,14.86
2023-03-17T17:51:10.665Z,14.81
2023-03-17T17:53:38.253Z,14.75
2023-03-17T17:56:06.344Z,14.67
2023-03-17T17:58:34.275Z,14.63
2023-03-17T18:01:04.435Z,14.57
2023-03-17T18:03:33.914Z,14.49
2023-03-17T18:06:01.964Z,14.47
2023-03-17T18:08:29.774Z,14.43
2023-03-17T18:10:57.414Z,14.37
2023-03-17T18:13:25.035Z,14.39
2023-03-17T18:15:52.879Z,14.29
2023-03-17T18:18:20.692Z,14.25
2023-03-17T18:20:50.809Z,14.22
2023-03-17T18:23:20.095Z,14.21
2023-03-17T18:25:47.787Z,14.15
2023-03-17T18:28:16.657Z,14.11
2023-03-17T18:30:44.643Z,14.07
2023-03-17T18:33:17.719Z,14.05
2023-03-17T18:35:48.764Z,14.02
2023-03-17T18:38:17.931Z,14.00
2023-03-17T18:40:46.727Z,13.97
2023-03-17T18:43:14.371Z,13.93
2023-03-17T18:45:42.234Z,13.89
2023-03-17T18:48:09.869Z,13.86
2023-03-17T18:50:37.420Z,13.84
2023-03-17T18:53:05.930Z,13.81
2023-03-17T18:55:34.959Z,13.81
2023-03-17T18:58:02.540Z,13.83
2023-03-17T19:00:30.740Z,13.77
2023-03-17T19:02:58.860Z,13.76
2023-03-17T19:05:26.593Z,13.69
2023-03-17T19:07:54.376Z,13.71
2023-03-17T19:10:22.069Z,13.71
2023-03-17T19:12:52.080Z,13.68
2023-03-17T19:15:21.501Z,13.66
2023-03-17T19:17:50.236Z,13.65
2023-03-17T19:20:19.677Z,13.70
2023-03-17T19:22:47.357Z,13.68
2023-03-17T19:25:16.457Z,13.61
2023-03-17T19:27:44.327Z,13.59
2023-03-17T19:30:14.661Z,13.62
2023-03-17T19:32:42.410Z,13.60
2023-03-17T19:35:12.954Z,13.56
2023-03-17T19:37:42.747Z,13.53
2023-03-17T19:40:13.201Z,13.55
2023-03-17T19:42:40.911Z,13.52
2023-03-17T19:45:09.723Z,13.50
2023-03-17T19:47:38.668Z,13.48
2023-03-17T19:50:08.212Z,13.53
2023-03-17T19:52:36.166Z,13.52
2023-03-17T19:55:05.444Z,13.45
2023-03-17T19:57:34.741Z,13.47
2023-03-17T20:00:02.562Z,13.44
2023-03-17T20:02:38.899Z,13.41
2023-03-17T20:05:07.734Z,13.42
2023-03-17T20:07:36.036Z,13.35
2023-03-17T20:10:04.529Z,13.33
2023-03-17T20:12:32.633Z,13.30
2023-03-17T20:15:01.367Z,13.30
2023-03-17T20:17:29.070Z,13.34
2023-03-17T20:20:00.656Z,13.30
2023-03-17T20:22:28.291Z,13.24
2023-03-17T20:24:56.963Z,13.16
2023-03-17T20:27:25.208Z,13.14
2023-03-17T20:29:52.870Z,13.14
2023-03-17T20:32:21.058Z,13.15
2023-03-17T20:34:49.008Z,13.07
2023-03-17T20:37:18.672Z,13.04
2023-03-17T20:39:46.285Z,13.03
2023-03-17T20:42:15.099Z,13.00
2023-03-17T20:44:43.072Z,12.95
2023-03-17T20:47:11.271Z,12.97
2023-03-17T20:49:39.178Z,12.93
2023-03-17T20:52:08.405Z,12.87
2023-03-17T20:54:38.794Z,12.85
2023-03-17T20:57:07.674Z,12.86
2023-03-17T20:59:37.194Z,12.83
2023-03-17T21:02:05.378Z,12.80
2023-03-17T21:04:33.151Z,12.81
2023-03-17T21:07:00.754Z,12.74
2023-03-17T21:09:28.494Z,12.72
2023-03-17T21:11:57.644Z,12.69
2023-03-17T21:14:27.618Z,12.68
2023-03-17T21:16:55.188Z,12.67
2023-03-17T21:19:23.441Z,12.63
2023-03-17T21:21:51.288Z,12.65
2023-03-17T21:24:28.636Z,12.66
2023-03-17T21:26:59.522Z,12.61
2023-03-17T21:29:27.560Z,12.57
2023-03-17T21:31:56.711Z,12.56
2023-03-17T21:34:24.901Z,12.55
2023-03-17T21:36:52.754Z,12.50
2023-03-17T21:39:21.298Z,12.48
2023-03-17T21:41:50.836Z,12.48
2023-03-17T21:44:20.152Z,12.46
2023-03-17T21:46:49.188Z,12.43
2023-03-17T21:49:18.643Z,12.43
2023-03-17T21:51:47.620Z,12.40
2023-03-17T21:54:15.599Z,12.39
2023-03-17T21:56:43.554Z,12.38
2023-03-17T21:59:12.315Z,12.36
2023-03-17T22:01:41.723Z,12.35
2023-03-17T22:04:09.830Z,12.37
2023-03-17T22:06:37.504Z,12.35
2023-03-17T22:09:06.890Z,12.28
2023-03-17T22:11:34.914Z,12.24
2023-03-17T22:14:02.823Z,12.24
2023-03-17T22:16:31.165Z,12.22
2023-03-17T22:19:00.575Z,12.18
2023-03-17T22:21:28.682Z,12.17
2023-03-17T22:23:56.393Z,12.17
2023-03-17T22:26:24.056Z,12.17
2023-03-17T22:28:51.781Z,12.14
2023-03-17T22:31:22.266Z,12.10
2023-03-17T22:33:51.181Z,12.10
2023-03-17T22:36:20.575Z,12.07
2023-03-17T22:38:48.750Z,12.05
2023-03-17T22:41:18.693Z,12.03
2023-03-17T22:43:47.831Z,12.02
2023-03-17T22:46:16.642Z,12.04
2023-03-17T22:48:46.008Z,11.97
2023-03-17T22:51:16.287Z,11.99
2023-03-17T22:53:46.297Z,11.92
2023-03-17T22:56:15.585Z,11.92
2023-03-17T22:58:43.878Z,11.90
2023-03-17T23:01:13.319Z,11.84
2023-03-17T23:03:41.832Z,11.81
2023-03-17T23:06:13.009Z,11.79
2023-03-17T23:08:42.660Z,11.75
2023-03-17T23:11:14.433Z,11.72
2023-03-17T23:13:42.614Z,11.68
2023-03-17T23:16:10.804Z,11.67
2023-03-17T23:18:38.496Z,11.63
2023-03-17T23:21:07.348Z,11.58
2023-03-17T23:23:35.751Z,11.55
2023-03-17T23:26:03.557Z,11.52
2023-03-17T23:28:32.952Z,11.48
2023-03-17T23:31:02.565Z,11.44
2023-03-17T23:33:31.693Z,11.40
2023-03-17T23:35:59.317Z,11.39
2023-03-17T23:38:27.612Z,11.36
2023-03-17T23:40:57.424Z,11.33
2023-03-17T23:43:25.932Z,11.32
2023-03-17T23:45:54.983Z,11.31
2023-03-17T23:48:23.100Z,11.30
2023-03-17T23:50:52.521Z,11.26
2023-03-17T23:53:20.282Z,11.24
2023-03-17T23:55:48.810Z,11.22
2023-03-17T23:58:16.654Z,11.24
